MMHO/HMO METAR and TAF weather

Enter ICAO airport designator
Station Type Date Time Source
MMHO METAR 2019/04/20 21:40 UTC NOAA

MMHO 202140Z 22014G24KT 10SM SKC 37/02 A2985 RMK HZY


Station Type Date Time Source
MMHO Decoded METAR 2019/04/20 21:40 UTC NOAA

Hermosillo, Son., Mexico (MMHO) 29-04N 110-57W
Apr 20, 2019 - 05:40 PM EDT / 2019.04.20 2140 UTC
Wind: from the SW (220 degrees) at 16 MPH (14 KT) gusting to 28 MPH (24 KT):0
Visibility: 10 mile(s):0
Sky conditions: clear
Temperature: 98 F (37 C)
Dew Point: 35 F (2 C)
Relative Humidity: 11%
Pressure (altimeter): 29.85 in. Hg (1010 hPa)
ob: MMHO 202140Z 22014G24KT 10SM SKC 37/02 A2985 RMK HZY
cycle: 21

Station Type Date Time Source
MMHO TAF 2019/04/20 18:40 UTC NOAA

TAF MMHO 201633Z 2018/2118 24015KT P6SM SKC
BECMG 2102/2103 00000KT
FM211500 25010KT P6SM SKC

Example: see airport list